Time;durP1;ratioP1;P1;durP2;ratioP2;P2;SDS_P1;SDS_P2;PMS_P1;PMS_P2;Temp;Humidity;BMP_temperature;BMP_pressure;BME280_temperature;BME280_humidity;BME280_pressure;Samples;Min_cycle;Max_cycle;Signal;HPM_P1;HPM_P2
2023/09/29 00:00:13;;;;;;;18.60;6.50;;;15.50;99.90;;;;;;5076653;28;20079;-69
2023/09/29 00:02:39;;;;;;;15.88;6.20;;;15.50;99.90;;;;;;5059883;28;20043;-69
2023/09/29 00:05:06;;;;;;;22.70;7.85;;;15.60;99.90;;;;;;5094898;28;20142;-69
2023/09/29 00:07:32;;;;;;;15.98;6.80;;;15.50;99.90;;;;;;5059888;28;20048;-70
2023/09/29 00:09:57;;;;;;;16.08;6.70;;;15.50;99.90;;;;;;5060166;28;20036;-71
2023/09/29 00:12:23;;;;;;;17.35;6.60;;;15.50;99.90;;;;;;5076422;28;20036;-72
2023/09/29 00:14:49;;;;;;;18.73;6.35;;;15.50;99.90;;;;;;5076581;28;20040;-70
2023/09/29 00:17:15;;;;;;;14.15;5.82;;;15.50;99.90;;;;;;5043585;28;21384;-71
2023/09/29 00:19:40;;;;;;;16.65;7.30;;;15.50;99.90;;;;;;5043831;28;20496;-70
2023/09/29 00:22:06;;;;;;;21.02;7.47;;;15.50;99.90;;;;;;5076935;28;20048;-70
2023/09/29 00:24:32;;;;;;;13.82;5.85;;;15.40;99.90;;;;;;5076887;28;20158;-69
2023/09/29 00:26:58;;;;;;;20.80;8.48;;;15.50;99.90;;;;;;5060454;28;20035;-70
2023/09/29 00:29:23;;;;;;;16.88;7.35;;;15.40;99.90;;;;;;5059876;28;20032;-72
2023/09/29 00:31:49;;;;;;;19.08;6.63;;;15.40;99.90;;;;;;5076658;28;20070;-70
2023/09/29 00:34:15;;;;;;;17.63;6.82;;;15.30;99.90;;;;;;5059878;28;20498;-70
2023/09/29 00:36:42;;;;;;;16.73;8.43;;;15.40;99.90;;;;;;5059548;28;20074;-71
2023/09/29 00:39:11;;;;;;;20.65;8.80;;;15.40;99.90;;;;;;5059741;28;20124;-70
2023/09/29 00:41:37;;;;;;;17.52;7.78;;;15.40;99.90;;;;;;5059083;28;20040;-70
2023/09/29 00:44:04;;;;;;;20.70;8.23;;;15.40;99.90;;;;;;5076322;28;20082;-70
2023/09/29 00:46:30;;;;;;;17.65;7.10;;;15.40;99.90;;;;;;5076119;28;20099;-70
2023/09/29 00:48:56;;;;;;;16.75;7.03;;;15.40;99.90;;;;;;5075811;28;20459;-70
2023/09/29 00:51:21;;;;;;;18.30;8.13;;;15.40;99.90;;;;;;5076034;28;20400;-70
2023/09/29 00:53:51;;;;;;;19.70;7.43;;;15.50;99.90;;;;;;5092651;28;20040;-70
2023/09/29 00:56:17;;;;;;;16.15;7.07;;;15.50;99.90;;;;;;5075846;28;20111;-70
2023/09/29 00:58:43;;;;;;;20.83;8.65;;;15.50;99.90;;;;;;5058850;28;20124;-70
2023/09/29 01:01:11;;;;;;;17.83;7.35;;;15.50;99.90;;;;;;5075572;28;20353;-70
2023/09/29 01:03:37;;;;;;;21.65;7.60;;;15.60;99.90;;;;;;5059689;28;20044;-70
2023/09/29 01:06:08;;;;;;;18.85;7.57;;;15.60;99.90;;;;;;5058051;28;20047;-70
2023/09/29 01:08:36;;;;;;;20.42;8.38;;;15.60;99.90;;;;;;5093930;28;20040;-70
2023/09/29 01:11:06;;;;;;;16.85;7.55;;;15.60;99.90;;;;;;5059172;28;20040;-72
2023/09/29 01:13:32;;;;;;;17.40;7.55;;;15.60;99.90;;;;;;5060318;28;20101;-71
2023/09/29 01:15:59;;;;;;;21.10;7.60;;;15.60;99.90;;;;;;5058784;28;20501;-71
2023/09/29 01:18:25;;;;;;;17.27;7.13;;;15.60;99.90;;;;;;5041939;28;20051;-71
2023/09/29 01:20:51;;;;;;;16.67;7.55;;;15.60;99.90;;;;;;5058929;28;20437;-70
2023/09/29 01:23:17;;;;;;;19.20;8.00;;;15.60;99.90;;;;;;5058994;28;20101;-71
2023/09/29 01:25:43;;;;;;;19.92;8.18;;;15.60;99.90;;;;;;5075382;28;20135;-71
2023/09/29 01:28:10;;;;;;;21.25;8.52;;;15.60;99.90;;;;;;5075274;28;20047;-71
2023/09/29 01:30:37;;;;;;;20.20;8.02;;;15.60;99.90;;;;;;5091954;28;20044;-70
2023/09/29 01:33:03;;;;;;;21.40;8.63;;;15.60;99.90;;;;;;5058898;28;20044;-71
2023/09/29 01:35:29;;;;;;;19.17;7.97;;;15.60;99.90;;;;;;5058773;28;20512;-69
2023/09/29 01:37:59;;;;;;;20.95;7.95;;;15.60;99.90;;;;;;5059306;28;20127;-70
2023/09/29 01:40:24;;;;;;;19.27;7.22;;;15.60;99.90;;;;;;5075233;28;20048;-71
2023/09/29 01:42:51;;;;;;;17.25;7.13;;;15.60;99.90;;;;;;5075362;28;20096;-70
2023/09/29 01:45:18;;;;;;;16.45;7.07;;;15.60;99.90;;;;;;5075350;28;20044;-71
2023/09/29 01:47:46;;;;;;;16.63;6.38;;;15.60;99.90;;;;;;5075240;28;20612;-70
2023/09/29 01:50:16;;;;;;;18.80;7.95;;;15.60;99.90;;;;;;5041806;28;20189;-70
2023/09/29 01:52:44;;;;;;;17.02;7.15;;;15.70;99.90;;;;;;5058639;28;20040;-70
2023/09/29 01:55:14;;;;;;;18.40;7.53;;;15.60;99.90;;;;;;5074914;28;20044;-71
2023/09/29 01:57:44;;;;;;;20.25;7.72;;;15.60;99.90;;;;;;5075454;28;20105;-71
2023/09/29 02:00:18;;;;;;;18.90;7.25;;;15.60;99.90;;;;;;5075294;28;20069;-71
2023/09/29 02:02:44;;;;;;;18.10;7.60;;;15.70;99.90;;;;;;5059024;28;20044;-72
2023/09/29 02:05:11;;;;;;;17.58;7.63;;;15.70;99.90;;;;;;5091975;28;20579;-70
2023/09/29 02:07:38;;;;;;;18.92;7.72;;;15.70;99.90;;;;;;5058332;28;20488;-71
2023/09/29 02:10:04;;;;;;;19.15;7.57;;;15.70;99.90;;;;;;5058658;28;20048;-70
2023/09/29 02:12:31;;;;;;;23.13;9.43;;;15.70;99.90;;;;;;5074728;28;20055;-70
2023/09/29 02:14:57;;;;;;;18.95;9.02;;;15.70;99.90;;;;;;5074791;28;20044;-71
2023/09/29 02:17:23;;;;;;;21.10;9.57;;;15.70;99.90;;;;;;5059977;28;20051;-70
2023/09/29 02:19:49;;;;;;;20.67;9.77;;;15.70;99.90;;;;;;5045317;28;20136;-70
2023/09/29 02:22:18;;;;;;;20.83;9.85;;;15.70;99.90;;;;;;5078569;28;20547;-70
2023/09/29 02:24:44;;;;;;;19.48;9.40;;;15.70;99.90;;;;;;5062613;28;20567;-71
2023/09/29 02:27:10;;;;;;;22.45;10.02;;;15.70;99.90;;;;;;5045059;28;20083;-71
2023/09/29 02:29:42;;;;;;;22.02;9.70;;;15.80;99.90;;;;;;5062059;28;20093;-71
2023/09/29 02:32:10;;;;;;;18.83;9.50;;;15.80;99.90;;;;;;5063483;28;20039;-70
2023/09/29 02:34:36;;;;;;;18.75;9.00;;;15.80;99.90;;;;;;5045193;28;20487;-72
2023/09/29 02:37:07;;;;;;;20.88;9.95;;;15.90;99.90;;;;;;5061689;28;20040;-69
2023/09/29 02:39:33;;;;;;;18.95;9.90;;;15.90;99.90;;;;;;5096010;27;20511;-70
2023/09/29 02:42:00;;;;;;;20.88;9.35;;;15.90;99.90;;;;;;5078206;28;20040;-71
2023/09/29 02:44:27;;;;;;;18.38;9.00;;;16.00;99.90;;;;;;5061821;28;20141;-70
2023/09/29 02:46:53;;;;;;;19.73;8.80;;;15.90;99.90;;;;;;5095364;28;20036;-70
2023/09/29 02:49:20;;;;;;;19.38;9.45;;;16.00;99.90;;;;;;5078161;28;20046;-70
2023/09/29 02:51:45;;;;;;;18.95;9.15;;;15.90;99.90;;;;;;5095045;28;20044;-69
2023/09/29 02:54:11;;;;;;;22.58;9.48;;;15.90;99.90;;;;;;5078046;28;20535;-70
2023/09/29 02:56:37;;;;;;;21.60;9.27;;;15.90;99.90;;;;;;5061316;28;20032;-70
2023/09/29 02:59:05;;;;;;;22.85;9.02;;;15.90;99.90;;;;;;5061176;28;20127;-70
2023/09/29 03:01:32;;;;;;;20.75;9.80;;;15.90;99.90;;;;;;5078115;28;20040;-70
2023/09/29 03:03:58;;;;;;;21.00;9.50;;;15.90;99.90;;;;;;5094733;28;20044;-69
2023/09/29 03:06:24;;;;;;;23.08;10.30;;;15.90;99.90;;;;;;5077770;28;20040;-70
2023/09/29 03:08:57;;;;;;;20.58;10.48;;;15.90;99.90;;;;;;5094601;28;20214;-70
2023/09/29 03:11:24;;;;;;;22.83;10.35;;;15.90;99.90;;;;;;5060994;28;20058;-69
2023/09/29 03:13:54;;;;;;;20.17;11.38;;;15.90;99.90;;;;;;5095761;28;20059;-70
2023/09/29 03:16:24;;;;;;;24.13;11.68;;;15.90;99.90;;;;;;5094480;28;20476;-71
2023/09/29 03:18:50;;;;;;;20.75;11.70;;;16.00;99.90;;;;;;5077487;28;20064;-71
2023/09/29 03:21:16;;;;;;;24.52;12.95;;;16.00;99.90;;;;;;5077441;28;20052;-69
2023/09/29 03:23:49;;;;;;;25.33;12.70;;;16.00;99.90;;;;;;5094608;28;20399;-72
2023/09/29 03:26:17;;;;;;;23.58;12.85;;;16.00;99.90;;;;;;5077595;28;20044;-71
2023/09/29 03:28:43;;;;;;;22.05;12.88;;;16.00;99.90;;;;;;5076478;28;20044;-71
2023/09/29 03:31:10;;;;;;;25.40;14.10;;;16.00;99.90;;;;;;5094527;28;20043;-70
2023/09/29 03:33:36;;;;;;;26.98;12.93;;;16.10;99.90;;;;;;5094250;28;20044;-70
2023/09/29 03:36:03;;;;;;;22.15;11.32;;;16.10;99.90;;;;;;5060497;28;20097;-70
2023/09/29 03:38:30;;;;;;;24.67;13.05;;;16.10;99.90;;;;;;5077127;28;20052;-71
2023/09/29 03:40:57;;;;;;;23.45;13.60;;;16.20;99.90;;;;;;5093960;28;20051;-70
2023/09/29 03:43:23;;;;;;;23.05;12.70;;;16.20;99.90;;;;;;5077187;28;20043;-71
2023/09/29 03:45:49;;;;;;;22.00;12.32;;;16.20;99.90;;;;;;5094152;28;20396;-65
2023/09/29 03:48:16;;;;;;;20.60;13.05;;;16.20;99.90;;;;;;5076719;28;20396;-66
2023/09/29 03:50:43;;;;;;;24.63;13.27;;;16.30;99.90;;;;;;5076695;28;20081;-67
2023/09/29 03:53:09;;;;;;;25.02;13.45;;;16.40;99.90;;;;;;5093840;28;20047;-66
2023/09/29 03:55:35;;;;;;;20.42;13.38;;;16.40;99.90;;;;;;5093538;28;20040;-65
2023/09/29 03:58:01;;;;;;;25.80;14.50;;;16.40;99.90;;;;;;5076563;28;20047;-66
2023/09/29 04:00:36;;;;;;;23.88;14.15;;;16.40;99.90;;;;;;5076761;28;20130;-66
2023/09/29 04:03:06;;;;;;;27.13;14.32;;;16.40;99.90;;;;;;5093509;28;20036;-66
2023/09/29 04:05:32;;;;;;;24.95;14.15;;;16.40;99.90;;;;;;5093627;28;20036;-66
2023/09/29 04:07:58;;;;;;;25.25;14.50;;;16.30;99.90;;;;;;5076486;28;20081;-65
2023/09/29 04:10:24;;;;;;;23.50;14.20;;;16.30;99.90;;;;;;5093287;28;20043;-66
2023/09/29 04:12:49;;;;;;;22.88;14.05;;;16.30;99.90;;;;;;5093135;28;20127;-67
2023/09/29 04:15:16;;;;;;;24.10;13.02;;;16.30;99.90;;;;;;5076259;28;20032;-65
2023/09/29 04:17:46;;;;;;;25.88;13.38;;;16.20;99.90;;;;;;5076339;28;20055;-66
2023/09/29 04:20:22;;;;;;;22.55;12.63;;;16.20;99.90;;;;;;5077781;28;20522;-66
2023/09/29 04:22:48;;;;;;;22.02;13.50;;;16.20;99.90;;;;;;5076072;28;20130;-64
2023/09/29 04:25:13;;;;;;;22.65;13.82;;;16.20;99.90;;;;;;5092874;28;20404;-67
2023/09/29 04:27:40;;;;;;;23.50;13.60;;;16.20;99.90;;;;;;5076146;28;20047;-65
2023/09/29 04:30:08;;;;;;;22.40;12.45;;;16.20;99.90;;;;;;5076400;28;20043;-66
2023/09/29 04:32:34;;;;;;;20.20;12.15;;;16.20;99.90;;;;;;5076131;28;20058;-67
2023/09/29 04:35:00;;;;;;;24.67;12.38;;;16.20;99.90;;;;;;5093085;28;20172;-67
2023/09/29 04:37:26;;;;;;;22.70;12.23;;;16.30;99.90;;;;;;5076200;28;20044;-66
2023/09/29 04:39:51;;;;;;;20.55;11.90;;;16.30;99.90;;;;;;5092921;28;20062;-66
2023/09/29 04:42:18;;;;;;;18.63;11.30;;;16.30;99.90;;;;;;5092653;28;20044;-65
2023/09/29 04:44:44;;;;;;;21.83;12.23;;;16.40;99.90;;;;;;5076194;28;20050;-65
2023/09/29 04:47:10;;;;;;;17.83;12.05;;;16.40;99.90;;;;;;5092788;28;20488;-66
2023/09/29 04:49:36;;;;;;;19.90;12.60;;;16.40;99.90;;;;;;5075542;28;20093;-66
2023/09/29 04:52:03;;;;;;;19.30;12.85;;;16.50;99.90;;;;;;5092370;28;20409;-66
2023/09/29 04:54:28;;;;;;;23.73;12.88;;;16.50;99.90;;;;;;5075850;28;20044;-65
2023/09/29 04:56:54;;;;;;;24.75;13.68;;;16.50;99.90;;;;;;5075548;28;20039;-65
2023/09/29 04:59:24;;;;;;;18.63;12.82;;;16.50;99.90;;;;;;5092611;28;20089;-67
2023/09/29 05:01:50;;;;;;;23.30;13.75;;;16.50;99.90;;;;;;5092314;28;20040;-66
2023/09/29 05:04:16;;;;;;;21.27;12.07;;;16.50;99.90;;;;;;5092401;28;20555;-66
2023/09/29 05:06:42;;;;;;;20.13;12.07;;;16.50;99.90;;;;;;5092171;28;20503;-67
2023/09/29 05:09:11;;;;;;;24.50;11.85;;;16.50;99.90;;;;;;5075365;28;20040;-67
2023/09/29 05:11:37;;;;;;;17.58;11.10;;;16.50;99.90;;;;;;5058546;28;20126;-68
2023/09/29 05:14:03;;;;;;;18.17;11.43;;;16.50;99.90;;;;;;5092214;28;20500;-67
2023/09/29 05:16:34;;;;;;;18.70;11.77;;;16.50;99.90;;;;;;5075257;28;20043;-68
2023/09/29 05:19:00;;;;;;;19.63;11.75;;;16.50;99.90;;;;;;5088507;28;20056;-70
2023/09/29 05:21:27;;;;;;;19.85;11.15;;;16.50;99.90;;;;;;5055326;28;20052;-68
2023/09/29 05:23:55;;;;;;;20.52;11.35;;;16.60;99.90;;;;;;5071845;28;20044;-67
2023/09/29 05:26:21;;;;;;;18.50;11.23;;;16.60;99.90;;;;;;5055078;28;20044;-67
2023/09/29 05:28:49;;;;;;;18.52;11.00;;;16.60;99.90;;;;;;5071703;28;20052;-68
2023/09/29 05:31:15;;;;;;;18.95;11.38;;;16.60;99.90;;;;;;5071792;28;20041;-68
2023/09/29 05:33:41;;;;;;;16.98;10.85;;;16.60;99.90;;;;;;5071835;28;20032;-67
2023/09/29 05:36:07;;;;;;;18.98;10.73;;;16.60;99.90;;;;;;5055281;28;20044;-67
2023/09/29 05:38:33;;;;;;;18.40;10.77;;;16.60;99.90;;;;;;5071991;28;20048;-67
2023/09/29 05:40:59;;;;;;;19.38;10.93;;;16.60;99.90;;;;;;5071694;28;20036;-66
2023/09/29 05:43:26;;;;;;;18.52;10.30;;;16.60;99.90;;;;;;5071998;28;20048;-66
2023/09/29 05:45:54;;;;;;;17.58;10.38;;;16.60;99.90;;;;;;5072051;28;20544;-67
2023/09/29 05:48:21;;;;;;;16.00;10.40;;;16.60;99.90;;;;;;5054863;28;20508;-68
2023/09/29 05:51:00;;;;;;;18.92;10.00;;;16.60;99.90;;;;;;5071828;28;20496;-67
2023/09/29 05:53:26;;;;;;;15.93;9.52;;;16.60;99.90;;;;;;5092318;28;20068;-67
2023/09/29 05:55:52;;;;;;;16.73;9.65;;;16.70;99.90;;;;;;5092440;28;20032;-67
2023/09/29 05:58:20;;;;;;;15.05;8.88;;;16.70;99.90;;;;;;5076012;28;20503;-68
2023/09/29 06:00:46;;;;;;;17.38;9.32;;;16.70;99.90;;;;;;5059447;28;20561;-67
2023/09/29 06:03:11;;;;;;;16.98;9.50;;;16.70;99.90;;;;;;5075792;28;20045;-67
2023/09/29 06:05:37;;;;;;;15.60;9.40;;;16.70;99.90;;;;;;5092388;28;20044;-71
2023/09/29 06:08:04;;;;;;;15.65;9.02;;;16.70;99.90;;;;;;5058810;28;20044;-71
2023/09/29 06:10:29;;;;;;;16.95;9.93;;;16.70;99.90;;;;;;5092718;28;20090;-70
2023/09/29 06:12:55;;;;;;;15.77;9.30;;;16.80;99.90;;;;;;5075810;28;20040;-70
2023/09/29 06:15:21;;;;;;;18.70;9.35;;;16.70;99.90;;;;;;5092511;28;20076;-71
2023/09/29 06:17:46;;;;;;;16.38;9.82;;;16.80;99.90;;;;;;5095519;28;20082;-71
2023/09/29 06:20:23;;;;;;;14.88;9.85;;;16.80;99.90;;;;;;5078911;28;20048;-70
2023/09/29 06:22:49;;;;;;;17.20;9.63;;;16.80;99.90;;;;;;5062164;28;20044;-70
2023/09/29 06:25:15;;;;;;;18.15;9.75;;;16.90;99.90;;;;;;5062230;28;20054;-71
2023/09/29 06:27:41;;;;;;;17.23;9.82;;;16.90;99.90;;;;;;5079298;28;20048;-71
2023/09/29 06:30:10;;;;;;;16.13;9.25;;;16.90;99.90;;;;;;5078905;28;20130;-70
2023/09/29 06:32:36;;;;;;;15.27;9.07;;;16.90;99.90;;;;;;5078470;28;20036;-70
2023/09/29 06:35:02;;;;;;;15.30;9.27;;;16.90;99.90;;;;;;5095352;28;20032;-70
2023/09/29 06:37:31;;;;;;;17.90;9.65;;;16.90;99.90;;;;;;5096462;28;20044;-71
2023/09/29 06:40:01;;;;;;;15.63;9.35;;;17.00;99.90;;;;;;5078322;28;20071;-71
2023/09/29 06:42:27;;;;;;;13.75;8.52;;;16.90;99.90;;;;;;5060922;28;20105;-71
2023/09/29 06:44:55;;;;;;;13.25;8.80;;;17.00;99.90;;;;;;5094690;28;20046;-70
2023/09/29 06:47:21;;;;;;;13.70;8.52;;;17.00;99.90;;;;;;5061521;28;20032;-71
2023/09/29 06:49:50;;;;;;;14.50;8.43;;;17.00;99.90;;;;;;5061441;28;20128;-70
2023/09/29 06:52:16;;;;;;;12.85;7.55;;;17.00;99.90;;;;;;5078082;28;20499;-71
2023/09/29 06:54:45;;;;;;;13.98;7.65;;;17.00;99.90;;;;;;5078050;28;20051;-71
2023/09/29 06:57:11;;;;;;;17.13;8.35;;;17.00;99.90;;;;;;5078407;28;20097;-71
2023/09/29 06:59:37;;;;;;;12.98;7.53;;;17.00;99.90;;;;;;5077762;28;20071;-70
2023/09/29 07:02:07;;;;;;;12.95;7.28;;;17.00;99.90;;;;;;5094997;28;20080;-71
2023/09/29 07:04:36;;;;;;;12.60;7.40;;;17.00;99.90;;;;;;5060254;28;20044;-70
2023/09/29 07:07:01;;;;;;;14.90;7.47;;;17.00;99.90;;;;;;5078241;28;20046;-70
2023/09/29 07:09:28;;;;;;;13.57;7.38;;;17.10;99.90;;;;;;5077964;28;20097;-71
2023/09/29 07:11:54;;;;;;;11.30;7.00;;;17.10;99.90;;;;;;5078091;28;20385;-71
2023/09/29 07:14:20;;;;;;;12.63;6.63;;;17.10;99.90;;;;;;5095057;28;20040;-66
2023/09/29 07:16:49;;;;;;;12.35;6.75;;;17.10;99.90;;;;;;5061068;28;20040;-67
2023/09/29 07:19:16;;;;;;;10.95;6.50;;;17.10;99.90;;;;;;5077333;28;20059;-66
2023/09/29 07:21:42;;;;;;;12.32;6.93;;;17.20;99.90;;;;;;5077402;28;20077;-67
2023/09/29 07:24:08;;;;;;;13.07;6.32;;;17.10;99.90;;;;;;5077535;28;20076;-66
2023/09/29 07:26:35;;;;;;;11.93;6.20;;;17.20;99.90;;;;;;5077491;28;20476;-66
2023/09/29 07:29:03;;;;;;;11.50;6.15;;;17.20;99.90;;;;;;5060493;28;20047;-66
2023/09/29 07:31:38;;;;;;;11.18;6.45;;;17.20;99.90;;;;;;5093917;28;20127;-65
2023/09/29 07:34:04;;;;;;;10.95;6.07;;;17.20;99.90;;;;;;5077196;28;20040;-67
2023/09/29 07:36:33;;;;;;;10.65;5.90;;;17.20;99.90;;;;;;5077341;28;20499;-67
2023/09/29 07:38:59;;;;;;;12.15;6.07;;;17.30;99.90;;;;;;5077167;28;20052;-66
2023/09/29 07:41:25;;;;;;;11.95;5.95;;;17.30;99.90;;;;;;5094368;28;20480;-66
2023/09/29 07:43:51;;;;;;;11.23;5.70;;;17.30;99.90;;;;;;5094232;28;20051;-66
2023/09/29 07:46:16;;;;;;;9.88;5.45;;;17.40;99.90;;;;;;5095290;28;20043;-67
2023/09/29 07:48:42;;;;;;;7.97;5.20;;;17.50;99.90;;;;;;5077090;28;20514;-66
2023/09/29 07:51:11;;;;;;;11.57;5.65;;;17.60;99.90;;;;;;5094422;28;20036;-66
2023/09/29 07:53:37;;;;;;;10.30;5.38;;;17.70;99.90;;;;;;5076954;28;20054;-66
2023/09/29 07:56:03;;;;;;;17.63;6.00;;;17.80;99.90;;;;;;5060401;28;20032;-66
2023/09/29 07:58:49;;;;;;;9.02;5.30;;;17.90;99.90;;;;;;5076786;28;20044;-66
2023/09/29 08:01:15;;;;;;;10.63;5.50;;;17.80;99.90;;;;;;5076722;28;20036;-65
2023/09/29 08:03:44;;;;;;;9.18;5.47;;;17.90;99.90;;;;;;5076726;28;20122;-65
2023/09/29 08:06:10;;;;;;;10.20;5.32;;;17.80;99.90;;;;;;5076548;28;20043;-67
2023/09/29 08:08:35;;;;;;;10.23;5.28;;;17.90;99.90;;;;;;5093302;28;20044;-66
2023/09/29 08:11:02;;;;;;;9.02;5.20;;;17.90;99.90;;;;;;5076486;28;20089;-67
2023/09/29 08:13:28;;;;;;;11.00;5.18;;;18.00;99.90;;;;;;5076582;28;20047;-66
2023/09/29 08:15:54;;;;;;;11.55;5.57;;;18.10;99.90;;;;;;5075968;28;20040;-65
2023/09/29 08:18:20;;;;;;;9.05;5.13;;;18.20;99.90;;;;;;5059701;28;20190;-66
2023/09/29 08:20:46;;;;;;;9.15;5.10;;;18.30;99.90;;;;;;5093339;28;20032;-67
2023/09/29 08:23:12;;;;;;;10.50;5.15;;;18.40;99.90;;;;;;5076466;28;20056;-68
2023/09/29 08:25:38;;;;;;;8.38;4.75;;;18.50;99.90;;;;;;5095216;28;20040;-71
2023/09/29 08:28:05;;;;;;;9.95;5.22;;;18.60;99.90;;;;;;5093803;28;20123;-70
2023/09/29 08:30:31;;;;;;;9.57;4.90;;;18.70;99.90;;;;;;5060333;28;20075;-69
2023/09/29 08:32:57;;;;;;;10.40;5.03;;;18.80;99.90;;;;;;5093771;28;20044;-71
2023/09/29 08:35:23;;;;;;;10.07;5.00;;;18.90;99.90;;;;;;5076396;28;20036;-71
2023/09/29 08:37:49;;;;;;;8.90;4.95;;;19.00;99.90;;;;;;5076297;28;20055;-71
2023/09/29 08:40:19;;;;;;;9.60;5.00;;;19.10;99.90;;;;;;5094994;28;20533;-70
2023/09/29 08:42:51;;;;;;;8.38;5.03;;;19.20;99.90;;;;;;5076729;28;20046;-71
2023/09/29 08:45:19;;;;;;;8.57;4.70;;;19.40;99.90;;;;;;5076407;28;20105;-72
2023/09/29 08:47:53;;;;;;;9.63;4.40;;;19.50;99.90;;;;;;5093117;28;20079;-72
2023/09/29 08:50:37;;;;;;;8.27;4.28;;;19.60;99.90;;;;;;5064889;28;20458;-72
2023/09/29 08:53:05;;;;;;;9.00;4.60;;;19.80;99.90;;;;;;5076302;28;20074;-70
2023/09/29 08:55:31;;;;;;;9.73;4.45;;;19.90;99.90;;;;;;5075671;28;20087;-72
2023/09/29 08:57:57;;;;;;;7.80;3.95;;;20.10;99.90;;;;;;5093016;28;20104;-71
2023/09/29 09:00:26;;;;;;;8.88;4.40;;;20.20;99.90;;;;;;5092968;28;20040;-70
2023/09/29 09:02:52;;;;;;;7.97;4.05;;;20.30;99.90;;;;;;5093181;28;20050;-70
2023/09/29 09:05:20;;;;;;;8.60;4.07;;;20.40;99.90;;;;;;5092604;28;20048;-71
2023/09/29 09:07:48;;;;;;;7.55;3.70;;;20.50;99.90;;;;;;5092487;28;20052;-71
2023/09/29 09:10:14;;;;;;;9.50;4.05;;;20.70;99.90;;;;;;5075609;28;20122;-71
2023/09/29 09:12:40;;;;;;;8.73;3.80;;;20.70;99.90;;;;;;5092362;28;20119;-70
2023/09/29 09:15:08;;;;;;;8.95;3.67;;;20.80;99.90;;;;;;5075772;28;20036;-70
2023/09/29 09:17:35;;;;;;;7.07;3.60;;;20.90;99.90;;;;;;5074844;28;20036;-70
2023/09/29 09:20:01;;;;;;;7.90;3.80;;;21.00;99.90;;;;;;5075521;28;20113;-70
2023/09/29 09:22:32;;;;;;;6.55;3.20;;;21.10;99.90;;;;;;5075446;28;20051;-69
2023/09/29 09:25:02;;;;;;;7.30;3.80;;;21.10;99.90;;;;;;5076150;28;20450;-70
2023/09/29 09:27:42;;;;;;;7.80;3.30;;;21.20;99.90;;;;;;5057809;28;20093;-72
2023/09/29 09:30:21;;;;;;;6.72;3.05;;;21.20;99.90;;;;;;5092616;28;20444;-72
2023/09/29 09:32:50;;;;;;;7.40;3.20;;;21.10;99.90;;;;;;5075420;28;20118;-72
2023/09/29 09:35:27;;;;;;;9.15;3.35;;;21.10;99.90;;;;;;5073017;28;20105;-65
2023/09/29 09:38:01;;;;;;;6.75;3.10;;;21.10;99.90;;;;;;5058354;28;20044;-66
2023/09/29 09:40:27;;;;;;;6.53;3.25;;;21.20;99.90;;;;;;5092230;28;20504;-65
2023/09/29 09:43:10;;;;;;;8.40;3.40;;;21.20;99.90;;;;;;5075222;28;20488;-66
2023/09/29 09:45:42;;;;;;;6.93;3.20;;;21.30;99.90;;;;;;5074951;28;20101;-64
2023/09/29 09:48:09;;;;;;;8.00;3.28;;;21.40;99.90;;;;;;5075030;28;20090;-66
2023/09/29 09:50:36;;;;;;;8.70;3.47;;;21.50;99.90;;;;;;5075154;28;20499;-65
2023/09/29 09:53:06;;;;;;;9.20;3.40;;;21.50;99.90;;;;;;5075067;28;20040;-66
2023/09/29 09:56:10;;;;;;;7.82;3.53;;;21.60;99.90;;;;;;5074891;28;20074;-65
2023/09/29 09:58:37;;;;;;;7.88;3.60;;;21.80;99.90;;;;;;5074920;28;20051;-65
2023/09/29 10:01:03;;;;;;;7.25;3.45;;;21.90;99.90;;;;;;5093193;28;20503;-65
2023/09/29 10:03:30;;;;;;;7.05;3.40;;;22.10;99.90;;;;;;5092115;28;20040;-66
2023/09/29 10:05:57;;;;;;;8.30;3.40;;;22.10;99.90;;;;;;5075123;28;20048;-66
2023/09/29 10:08:37;;;;;;;7.35;3.40;;;22.20;99.90;;;;;;5091606;28;20040;-66
2023/09/29 10:11:14;;;;;;;7.07;3.35;;;22.30;99.90;;;;;;5075522;28;20561;-66
2023/09/29 10:13:44;;;;;;;7.82;3.38;;;22.30;99.90;;;;;;5074593;28;20039;-66
2023/09/29 10:16:24;;;;;;;6.10;3.15;;;22.20;99.90;;;;;;5074958;28;20089;-67
2023/09/29 10:19:05;;;;;;;7.03;3.42;;;22.10;99.90;;;;;;5074619;28;20105;-66
2023/09/29 10:21:45;;;;;;;7.45;3.28;;;22.10;99.90;;;;;;5091800;28;20048;-66
2023/09/29 10:24:23;;;;;;;6.50;3.28;;;22.10;99.90;;;;;;5091492;28;20097;-66
2023/09/29 10:26:59;;;;;;;8.73;3.50;;;22.20;99.90;;;;;;5074844;28;20040;-67
2023/09/29 10:29:28;;;;;;;7.88;3.33;;;22.30;99.90;;;;;;5074508;28;20040;-66
2023/09/29 10:32:10;;;;;;;7.40;3.30;;;22.20;99.90;;;;;;5074572;28;20036;-67
2023/09/29 10:34:37;;;;;;;7.78;3.30;;;22.20;99.90;;;;;;5074945;28;20066;-66
2023/09/29 10:37:03;;;;;;;8.63;3.50;;;22.10;99.90;;;;;;5057999;28;20040;-66
2023/09/29 10:39:29;;;;;;;8.23;3.50;;;22.20;99.90;;;;;;5077897;28;20135;-66
2023/09/29 10:42:04;;;;;;;7.72;3.55;;;22.20;99.90;;;;;;5078403;28;20515;-67
2023/09/29 10:44:31;;;;;;;6.50;3.45;;;22.10;99.90;;;;;;5078132;28;20054;-70
2023/09/29 10:46:57;;;;;;;6.13;3.20;;;22.00;99.90;;;;;;5061631;28;20076;-72
2023/09/29 10:49:32;;;;;;;7.00;3.20;;;22.00;99.90;;;;;;5094838;28;20078;-72
2023/09/29 10:51:58;;;;;;;7.20;3.50;;;21.80;99.90;;;;;;5078141;28;20101;-71
2023/09/29 10:54:27;;;;;;;8.00;3.45;;;21.70;99.90;;;;;;5094885;28;20032;-72
2023/09/29 10:56:54;;;;;;;8.45;3.60;;;21.50;99.90;;;;;;5077966;28;20044;-70
2023/09/29 10:59:19;;;;;;;8.60;3.80;;;21.40;99.90;;;;;;5095138;28;20043;-72
2023/09/29 11:01:46;;;;;;;9.60;3.50;;;21.30;99.90;;;;;;5095126;28;20044;-70
2023/09/29 11:04:12;;;;;;;8.27;3.42;;;21.20;99.90;;;;;;5077996;28;20048;-72
2023/09/29 11:06:46;;;;;;;7.90;3.75;;;21.10;99.90;;;;;;5078121;28;20044;-71
2023/09/29 11:09:19;;;;;;;7.70;3.50;;;21.10;99.90;;;;;;5096182;28;20041;-72
2023/09/29 11:11:48;;;;;;;8.82;3.50;;;21.10;99.90;;;;;;5095357;28;20036;-72
2023/09/29 11:14:14;;;;;;;7.82;3.45;;;21.20;99.90;;;;;;5094993;28;20040;-74
2023/09/29 11:16:39;;;;;;;9.13;3.75;;;21.30;99.90;;;;;;5078350;28;20039;-71
2023/09/29 11:19:11;;;;;;;7.70;3.42;;;21.40;99.90;;;;;;5061102;28;20048;-72
2023/09/29 11:21:37;;;;;;;7.90;3.70;;;21.50;99.90;;;;;;5061991;28;20055;-71
2023/09/29 11:24:14;;;;;;;7.45;3.70;;;21.70;99.90;;;;;;5078163;28;20050;-71
2023/09/29 11:26:48;;;;;;;9.95;4.18;;;21.80;99.90;;;;;;5078044;28;20035;-69
2023/09/29 11:29:27;;;;;;;8.38;3.67;;;21.90;99.90;;;;;;5078108;28;20449;-71
2023/09/29 11:31:54;;;;;;;7.70;3.90;;;22.00;99.90;;;;;;5061354;28;20068;-69
2023/09/29 11:34:21;;;;;;;8.50;3.80;;;22.10;99.90;;;;;;5094489;28;20046;-71
2023/09/29 11:36:49;;;;;;;7.75;3.60;;;22.00;99.90;;;;;;5086068;28;20122;-71
2023/09/29 11:39:18;;;;;;;10.20;4.00;;;22.00;99.90;;;;;;5098740;28;20161;-71
2023/09/29 11:41:45;;;;;;;7.60;3.47;;;22.10;99.90;;;;;;5098667;28;20488;-71
2023/09/29 11:44:12;;;;;;;8.43;3.80;;;22.00;99.90;;;;;;5098537;28;20081;-72
2023/09/29 11:46:44;;;;;;;7.07;3.42;;;22.10;99.90;;;;;;5081090;28;20043;-72
2023/09/29 11:49:11;;;;;;;8.50;3.92;;;22.10;99.90;;;;;;5115504;28;20075;-72
2023/09/29 11:51:43;;;;;;;6.88;3.42;;;22.10;99.90;;;;;;5098111;28;20114;-71
2023/09/29 11:54:18;;;;;;;7.37;3.33;;;22.10;99.90;;;;;;5068687;28;20032;-72
2023/09/29 11:56:44;;;;;;;9.82;4.25;;;22.20;99.90;;;;;;5081115;28;20330;-71
2023/09/29 11:59:13;;;;;;;8.75;3.92;;;22.30;99.90;;;;;;5047655;28;20066;-72
2023/09/29 12:01:39;;;;;;;7.80;4.22;;;22.30;99.90;;;;;;5079045;28;20043;-72
2023/09/29 12:04:08;;;;;;;7.80;3.60;;;22.30;99.90;;;;;;5080683;28;20122;-73
2023/09/29 12:06:34;;;;;;;7.38;3.85;;;22.30;99.90;;;;;;5081041;28;20074;-73
2023/09/29 12:09:00;;;;;;;9.88;3.90;;;22.40;99.90;;;;;;5080337;28;20476;-73
2023/09/29 12:11:26;;;;;;;9.32;3.88;;;22.40;99.90;;;;;;5097581;28;20046;-72
2023/09/29 12:13:52;;;;;;;8.13;3.83;;;22.30;99.90;;;;;;5064135;28;20118;-72
2023/09/29 12:16:21;;;;;;;7.15;3.75;;;22.30;99.90;;;;;;5047544;28;20089;-72
2023/09/29 12:18:47;;;;;;;8.20;3.85;;;22.40;99.90;;;;;;5060622;28;20056;-71
2023/09/29 12:21:12;;;;;;;8.77;4.10;;;22.30;99.90;;;;;;5077120;28;20093;-72
2023/09/29 12:23:38;;;;;;;9.15;4.00;;;22.30;99.90;;;;;;5093638;28;20047;-71
2023/09/29 12:26:08;;;;;;;8.80;4.00;;;22.30;99.90;;;;;;5093643;28;20127;-71
2023/09/29 12:28:35;;;;;;;8.40;3.78;;;22.30;99.90;;;;;;5093668;28;20048;-72
2023/09/29 12:31:00;;;;;;;7.05;3.72;;;22.30;99.90;;;;;;5093901;28;20086;-72
2023/09/29 12:33:26;;;;;;;8.35;3.78;;;22.30;99.90;;;;;;5093599;28;20044;-72
2023/09/29 12:35:52;;;;;;;8.98;4.30;;;22.30;99.90;;;;;;5076651;28;20047;-72
2023/09/29 12:38:18;;;;;;;8.55;4.18;;;22.30;99.90;;;;;;5060061;28;20115;-72
2023/09/29 12:40:44;;;;;;;9.73;4.00;;;22.20;99.90;;;;;;5076563;28;20035;-72